createdAt,value
2018-05-09T00:00:10.268Z,0.00
2018-05-09T00:01:10.232Z,0.00
2018-05-09T00:02:10.211Z,0.00
2018-05-09T00:03:10.168Z,0.00
2018-05-09T00:04:10.117Z,0.00
2018-05-09T00:05:10.070Z,0.00
2018-05-09T00:06:10.033Z,0.00
2018-05-09T00:07:10.019Z,0.00
2018-05-09T00:08:09.964Z,0.00
2018-05-09T00:09:09.936Z,0.00
2018-05-09T00:10:09.965Z,0.00
2018-05-09T00:11:10.136Z,0.00
2018-05-09T00:12:09.808Z,0.00
2018-05-09T00:13:09.796Z,0.00
2018-05-09T00:14:09.748Z,0.00
2018-05-09T00:15:09.717Z,0.00
2018-05-09T00:16:09.659Z,0.00
2018-05-09T00:17:09.627Z,0.00
2018-05-09T00:18:09.580Z,0.00
2018-05-09T00:19:09.554Z,0.00
2018-05-09T00:20:09.513Z,0.00
2018-05-09T00:21:09.467Z,0.00
2018-05-09T00:22:09.450Z,0.00
2018-05-09T00:23:09.397Z,0.00
2018-05-09T00:24:09.349Z,0.00
2018-05-09T00:25:09.308Z,0.00
2018-05-09T00:26:09.323Z,0.00
2018-05-09T00:27:09.249Z,0.00
2018-05-09T00:28:09.191Z,0.00
2018-05-09T00:29:09.178Z,0.00
2018-05-09T00:30:09.144Z,0.00
2018-05-09T00:31:09.108Z,0.00
2018-05-09T00:32:09.065Z,0.00
2018-05-09T00:33:09.002Z,0.00
2018-05-09T00:34:08.985Z,0.00
2018-05-09T00:35:08.943Z,0.00
2018-05-09T00:36:08.885Z,0.00
2018-05-09T00:37:08.868Z,0.00
2018-05-09T00:38:08.840Z,0.00
2018-05-09T00:39:08.814Z,0.00
2018-05-09T00:40:08.762Z,0.00
2018-05-09T00:41:08.750Z,0.00
2018-05-09T00:42:08.744Z,0.00
2018-05-09T00:43:08.638Z,0.00
2018-05-09T00:44:08.593Z,0.00
2018-05-09T00:45:08.578Z,0.00
2018-05-09T00:46:08.545Z,0.00
2018-05-09T00:47:08.544Z,0.00
2018-05-09T00:48:08.439Z,0.00
2018-05-09T00:49:08.416Z,0.00
2018-05-09T00:50:08.431Z,0.00
2018-05-09T00:51:08.356Z,0.00
2018-05-09T00:52:08.284Z,0.00
2018-05-09T00:53:08.262Z,0.00
2018-05-09T00:54:08.211Z,0.00
2018-05-09T00:55:08.163Z,0.00
2018-05-09T00:56:08.159Z,0.00
2018-05-09T00:57:08.139Z,0.00
2018-05-09T00:58:08.070Z,0.00
2018-05-09T00:59:08.024Z,0.00
2018-05-09T01:00:07.995Z,0.00
2018-05-09T01:01:07.938Z,0.00
2018-05-09T01:02:07.903Z,0.00
2018-05-09T01:03:07.865Z,0.00
2018-05-09T01:04:07.881Z,0.00
2018-05-09T01:05:07.859Z,0.00
2018-05-09T01:06:07.751Z,0.00
2018-05-09T01:07:08.787Z,0.00
2018-05-09T01:08:07.671Z,0.00
2018-05-09T01:09:07.649Z,0.00
2018-05-09T01:10:07.607Z,0.00
2018-05-09T01:11:07.587Z,0.00
2018-05-09T01:12:07.543Z,0.00
2018-05-09T01:13:07.492Z,0.00
2018-05-09T01:14:07.441Z,0.00
2018-05-09T01:15:07.395Z,0.00
2018-05-09T01:16:07.365Z,0.00
2018-05-09T01:17:07.354Z,0.00
2018-05-09T01:18:07.320Z,0.00
2018-05-09T01:19:07.292Z,0.00
2018-05-09T01:20:07.274Z,0.00
2018-05-09T01:21:07.201Z,0.00
2018-05-09T01:22:07.120Z,0.00
2018-05-09T01:23:07.121Z,0.00
2018-05-09T01:24:07.058Z,0.00
2018-05-09T01:25:07.065Z,0.00
2018-05-09T01:26:07.002Z,0.00
2018-05-09T01:27:07.983Z,0.00
2018-05-09T01:28:06.891Z,0.00
2018-05-09T01:29:06.891Z,0.00
2018-05-09T01:30:06.822Z,0.00
2018-05-09T01:31:06.794Z,0.00
2018-05-09T01:32:06.741Z,0.00
2018-05-09T01:33:06.704Z,0.00
2018-05-09T01:34:06.656Z,0.00
2018-05-09T01:35:06.623Z,0.00
2018-05-09T01:36:06.589Z,0.00
2018-05-09T01:37:06.549Z,0.00
2018-05-09T01:38:06.513Z,0.00
2018-05-09T01:39:06.502Z,0.00
2018-05-09T01:40:06.458Z,0.00
2018-05-09T01:41:06.453Z,0.00
2018-05-09T01:42:06.348Z,0.00
2018-05-09T01:43:06.321Z,0.00
2018-05-09T01:44:06.319Z,0.00
2018-05-09T01:45:06.236Z,0.00
2018-05-09T01:46:06.325Z,0.00
2018-05-09T01:47:06.194Z,0.00
2018-05-09T01:48:06.123Z,0.00
2018-05-09T01:49:06.081Z,0.00
2018-05-09T01:50:06.060Z,0.00
2018-05-09T01:51:06.044Z,0.00
2018-05-09T01:52:06.027Z,0.00
2018-05-09T01:53:05.939Z,0.00
2018-05-09T01:54:05.939Z,0.00
2018-05-09T01:55:05.918Z,0.00
2018-05-09T01:56:05.820Z,0.00
2018-05-09T01:57:05.808Z,0.00
2018-05-09T01:58:05.729Z,0.00
2018-05-09T01:59:05.719Z,0.00
2018-05-09T02:00:05.663Z,0.00
2018-05-09T02:01:05.679Z,0.00
2018-05-09T02:02:05.621Z,0.00
2018-05-09T02:03:05.623Z,0.00
2018-05-09T02:04:05.519Z,0.00
2018-05-09T02:05:05.469Z,0.00
2018-05-09T02:06:05.540Z,0.00
2018-05-09T02:07:05.387Z,0.00
2018-05-09T02:08:05.347Z,0.00
2018-05-09T02:09:05.308Z,0.00
2018-05-09T02:10:05.316Z,0.00
2018-05-09T02:11:05.232Z,0.00
2018-05-09T02:12:05.195Z,0.00
2018-05-09T02:13:05.188Z,0.00
2018-05-09T02:14:05.117Z,0.00
2018-05-09T02:15:05.135Z,0.00
2018-05-09T02:16:05.078Z,0.00
2018-05-09T02:17:05.056Z,0.00
2018-05-09T02:18:04.966Z,0.00
2018-05-09T02:19:04.950Z,0.00
2018-05-09T02:20:04.956Z,0.00
2018-05-09T02:21:04.847Z,0.00
2018-05-09T02:22:04.888Z,0.00
2018-05-09T02:23:04.772Z,0.00
2018-05-09T02:24:04.759Z,0.00
2018-05-09T02:25:04.727Z,0.00
2018-05-09T02:26:04.675Z,0.00
2018-05-09T02:27:04.612Z,0.00
2018-05-09T02:28:04.568Z,0.00
2018-05-09T02:29:04.556Z,0.00
2018-05-09T02:30:04.504Z,0.00
2018-05-09T02:31:04.495Z,0.00
2018-05-09T02:32:04.540Z,0.00
2018-05-09T02:33:04.443Z,0.00
2018-05-09T02:34:04.347Z,0.00
2018-05-09T02:35:04.362Z,0.00
2018-05-09T02:36:04.246Z,0.00
2018-05-09T02:37:04.228Z,0.00
2018-05-09T02:38:04.168Z,0.00
2018-05-09T02:39:04.172Z,0.00
2018-05-09T02:40:04.118Z,0.00
2018-05-09T02:41:04.071Z,0.00
2018-05-09T02:42:04.083Z,0.00
2018-05-09T02:43:04.042Z,0.00
2018-05-09T02:44:03.942Z,0.00
2018-05-09T02:45:03.911Z,0.00
2018-05-09T02:46:03.889Z,0.00
2018-05-09T02:47:03.831Z,0.00
2018-05-09T02:48:03.794Z,0.00
2018-05-09T02:49:03.820Z,0.00
2018-05-09T02:50:03.722Z,0.00
2018-05-09T02:51:03.685Z,0.00
2018-05-09T02:52:03.664Z,0.00
2018-05-09T02:53:03.632Z,0.00
2018-05-09T02:54:03.572Z,0.00
2018-05-09T02:55:03.524Z,0.00
2018-05-09T02:56:03.491Z,0.00
2018-05-09T02:57:03.449Z,0.00
2018-05-09T02:58:03.404Z,0.00
2018-05-09T02:59:03.353Z,0.00
2018-05-09T03:00:03.341Z,0.00
2018-05-09T03:01:03.297Z,0.00
2018-05-09T03:02:03.898Z,0.00
2018-05-09T03:03:03.201Z,0.00
2018-05-09T03:04:03.170Z,0.00
2018-05-09T03:05:03.131Z,0.00
2018-05-09T03:06:03.111Z,0.00
2018-05-09T03:07:03.040Z,0.00
2018-05-09T03:08:03.031Z,0.00
2018-05-09T03:09:02.966Z,0.00
2018-05-09T03:10:02.926Z,0.00
2018-05-09T03:11:02.917Z,0.00
2018-05-09T03:12:02.863Z,0.00
2018-05-09T03:13:02.849Z,0.00
2018-05-09T03:14:02.771Z,0.00
2018-05-09T03:15:02.718Z,0.00
2018-05-09T03:16:02.760Z,0.00
2018-05-09T03:17:02.644Z,0.00
2018-05-09T03:18:02.608Z,5.63
2018-05-09T03:19:02.584Z,5.63
2018-05-09T03:20:02.519Z,5.63
2018-05-09T03:21:02.562Z,5.63
2018-05-09T03:22:02.480Z,5.63
2018-05-09T03:23:02.418Z,5.63
2018-05-09T03:24:02.380Z,11.25
2018-05-09T03:25:02.340Z,11.25
2018-05-09T03:26:02.304Z,11.25
2018-05-09T03:27:02.251Z,11.25
2018-05-09T03:28:02.273Z,16.88
2018-05-09T03:29:02.175Z,16.88
2018-05-09T03:30:02.169Z,16.88
2018-05-09T03:31:02.142Z,16.88
2018-05-09T03:32:02.070Z,22.50
2018-05-09T03:33:02.052Z,22.50
2018-05-09T03:34:02.000Z,28.13
2018-05-09T03:35:01.948Z,28.13
2018-05-09T03:36:01.921Z,28.13
2018-05-09T03:37:01.877Z,33.75
2018-05-09T03:38:01.861Z,33.75
2018-05-09T03:39:01.794Z,39.38
2018-05-09T03:40:01.770Z,39.38
2018-05-09T03:41:01.717Z,45.00
2018-05-09T03:42:01.702Z,45.00
2018-05-09T03:43:01.635Z,50.63
2018-05-09T03:44:01.596Z,50.63
2018-05-09T03:45:01.553Z,56.25
2018-05-09T03:46:01.507Z,61.88
2018-05-09T03:47:02.445Z,61.88
2018-05-09T03:48:01.454Z,67.50
2018-05-09T03:49:01.425Z,73.13
2018-05-09T03:50:01.383Z,78.75
2018-05-09T03:51:01.328Z,84.38
2018-05-09T03:52:01.299Z,90.00
2018-05-09T03:53:01.234Z,90.00
2018-05-09T03:54:01.198Z,95.63
2018-05-09T03:55:01.200Z,106.88
2018-05-09T03:56:01.134Z,112.50
2018-05-09T03:57:01.113Z,112.50
2018-05-09T03:58:01.050Z,118.13
2018-05-09T03:59:01.060Z,118.13
2018-05-09T04:00:00.980Z,123.75
2018-05-09T04:01:00.963Z,129.38
2018-05-09T04:02:00.919Z,135.00
2018-05-09T04:03:00.845Z,140.63
2018-05-09T04:04:00.830Z,146.25
2018-05-09T04:05:00.814Z,151.88
2018-05-09T04:06:00.731Z,157.50
2018-05-09T04:07:01.423Z,157.50
2018-05-09T04:08:00.668Z,163.13
2018-05-09T04:09:00.754Z,168.75
2018-05-09T04:10:00.602Z,174.38
2018-05-09T04:11:00.580Z,180.00
2018-05-09T04:12:00.732Z,185.63
2018-05-09T04:13:00.454Z,191.25
2018-05-09T04:14:00.416Z,191.25
2018-05-09T04:15:00.409Z,196.88
2018-05-09T04:16:00.324Z,196.88
2018-05-09T04:17:00.442Z,202.50
2018-05-09T04:18:00.264Z,202.50
2018-05-09T04:19:00.227Z,208.13
2018-05-09T04:20:00.192Z,219.38
2018-05-09T04:21:00.160Z,225.00
2018-05-09T04:22:00.117Z,219.38
2018-05-09T04:23:00.081Z,225.00
2018-05-09T04:24:00.028Z,230.63
2018-05-09T04:25:00.081Z,230.63
2018-05-09T04:25:59.972Z,236.25
2018-05-09T04:26:59.935Z,253.13
2018-05-09T04:27:59.888Z,253.13
2018-05-09T04:28:59.828Z,264.38
2018-05-09T04:29:59.809Z,264.38
2018-05-09T04:30:59.782Z,270.00
2018-05-09T04:31:59.751Z,275.63
2018-05-09T04:32:59.693Z,286.88
2018-05-09T04:33:59.643Z,292.50
2018-05-09T04:34:59.679Z,298.13
2018-05-09T04:35:59.545Z,309.38
2018-05-09T04:36:59.546Z,315.00
2018-05-09T04:37:59.488Z,309.38
2018-05-09T04:38:59.440Z,309.38
2018-05-09T04:39:59.416Z,315.00
2018-05-09T04:40:59.353Z,320.63
2018-05-09T04:41:59.363Z,320.63
2018-05-09T04:42:59.288Z,326.25
2018-05-09T04:43:59.244Z,331.88
2018-05-09T04:44:59.268Z,331.88
2018-05-09T04:45:59.160Z,337.50
2018-05-09T04:46:59.123Z,343.13
2018-05-09T04:47:59.077Z,348.75
2018-05-09T04:48:59.088Z,354.38
2018-05-09T04:49:59.105Z,354.38
2018-05-09T04:50:59.003Z,360.00
2018-05-09T04:51:58.934Z,365.63
2018-05-09T04:52:58.897Z,371.25
2018-05-09T04:53:58.859Z,382.50
2018-05-09T04:54:58.883Z,365.63
2018-05-09T04:55:58.820Z,354.38
2018-05-09T04:56:58.746Z,365.63
2018-05-09T04:57:58.714Z,376.88
2018-05-09T04:58:58.676Z,365.63
2018-05-09T04:59:58.627Z,365.63
2018-05-09T05:00:59.423Z,371.25
2018-05-09T05:01:58.580Z,376.88
2018-05-09T05:02:58.513Z,376.88
2018-05-09T05:03:58.520Z,438.75
2018-05-09T05:04:58.464Z,433.13
2018-05-09T05:05:58.458Z,455.63
2018-05-09T05:06:58.401Z,798.75
2018-05-09T05:07:58.330Z,990.00
2018-05-09T05:08:58.293Z,815.63
2018-05-09T05:09:58.264Z,748.13
2018-05-09T05:10:58.227Z,556.88
2018-05-09T05:11:58.190Z,686.25
2018-05-09T05:12:58.149Z,1147.50
2018-05-09T05:13:58.915Z,1406.25
2018-05-09T05:14:58.090Z,1265.63
2018-05-09T05:15:58.027Z,1220.63
2018-05-09T05:16:57.994Z,1305.00
2018-05-09T05:17:58.040Z,1096.88
2018-05-09T05:18:57.934Z,781.88
2018-05-09T05:19:57.885Z,675.00
2018-05-09T05:20:57.840Z,635.63
2018-05-09T05:21:57.802Z,613.13
2018-05-09T05:22:57.790Z,658.13
2018-05-09T05:23:57.747Z,697.50
2018-05-09T05:24:57.734Z,714.38
2018-05-09T05:25:58.429Z,658.13
2018-05-09T05:26:57.665Z,624.38
2018-05-09T05:27:57.609Z,663.75
2018-05-09T05:28:57.664Z,714.38
2018-05-09T05:29:57.532Z,708.75
2018-05-09T05:30:57.475Z,703.13
2018-05-09T05:31:57.458Z,703.13
2018-05-09T05:32:57.413Z,742.50
2018-05-09T05:33:57.390Z,686.25
2018-05-09T05:34:57.340Z,635.63
2018-05-09T05:35:57.308Z,601.88
2018-05-09T05:36:57.274Z,669.38
2018-05-09T05:37:57.246Z,573.75
2018-05-09T05:38:57.224Z,573.75
2018-05-09T05:39:57.200Z,562.50
2018-05-09T05:40:57.181Z,562.50
2018-05-09T05:41:57.104Z,573.75
2018-05-09T05:42:57.117Z,596.25
2018-05-09T05:43:57.034Z,613.13
2018-05-09T05:44:57.117Z,652.50
2018-05-09T05:45:56.974Z,675.00
2018-05-09T05:46:56.948Z,714.38
2018-05-09T05:47:56.924Z,748.13
2018-05-09T05:48:56.886Z,793.13
2018-05-09T05:49:56.841Z,849.38
2018-05-09T05:50:56.784Z,950.63
2018-05-09T05:51:56.757Z,1012.50
2018-05-09T05:52:56.736Z,1068.75
2018-05-09T05:53:56.680Z,1057.50
2018-05-09T05:54:56.672Z,978.75
2018-05-09T05:55:56.689Z,916.88
2018-05-09T05:56:56.571Z,866.25
2018-05-09T05:57:56.568Z,826.88
2018-05-09T05:58:56.603Z,928.13
2018-05-09T05:59:56.469Z,900.00
2018-05-09T06:00:56.460Z,945.00
2018-05-09T06:01:56.412Z,939.38
2018-05-09T06:02:56.375Z,1080.00
2018-05-09T06:03:56.329Z,1164.38
2018-05-09T06:04:56.304Z,1119.38
2018-05-09T06:05:56.293Z,995.63
2018-05-09T06:06:56.243Z,956.25
2018-05-09T06:07:56.208Z,911.25
2018-05-09T06:08:56.168Z,843.75
2018-05-09T06:09:56.150Z,804.38
2018-05-09T06:10:56.110Z,826.88
2018-05-09T06:11:56.159Z,843.75
2018-05-09T06:12:56.044Z,781.88
2018-05-09T06:13:56.016Z,714.38
2018-05-09T06:14:55.975Z,686.25
2018-05-09T06:15:55.940Z,686.25
2018-05-09T06:16:55.912Z,725.63
2018-05-09T06:17:55.870Z,759.38
2018-05-09T06:18:55.853Z,736.88
2018-05-09T06:19:55.816Z,703.13
2018-05-09T06:20:55.764Z,725.63
2018-05-09T06:21:55.732Z,725.63
2018-05-09T06:22:55.699Z,714.38
2018-05-09T06:23:55.738Z,725.63
2018-05-09T06:24:55.638Z,838.13
2018-05-09T06:25:55.623Z,866.25
2018-05-09T06:26:55.596Z,765.00
2018-05-09T06:27:55.542Z,714.38
2018-05-09T06:28:55.509Z,714.38
2018-05-09T06:29:55.478Z,714.38
2018-05-09T06:30:55.490Z,714.38
2018-05-09T06:31:55.400Z,714.38
2018-05-09T06:32:55.380Z,720.00
2018-05-09T06:33:55.344Z,720.00
2018-05-09T06:34:55.303Z,725.63
2018-05-09T06:35:55.381Z,725.63
2018-05-09T06:36:55.260Z,731.25
2018-05-09T06:37:55.252Z,731.25
2018-05-09T06:38:55.195Z,736.88
2018-05-09T06:39:55.135Z,742.50
2018-05-09T06:40:55.148Z,753.75
2018-05-09T06:41:55.087Z,765.00
2018-05-09T06:42:55.110Z,776.25
2018-05-09T06:43:55.015Z,1119.38
2018-05-09T06:44:54.996Z,1839.38
2018-05-09T06:45:54.981Z,2362.50
2018-05-09T06:46:54.985Z,2716.88
2018-05-09T06:47:54.882Z,2362.50
2018-05-09T06:48:54.861Z,2581.88
2018-05-09T06:49:54.897Z,2480.63
2018-05-09T06:50:54.957Z,1670.63
2018-05-09T06:51:54.762Z,2621.25
2018-05-09T06:52:54.738Z,2891.25
2018-05-09T06:53:54.707Z,3003.75
2018-05-09T06:54:54.668Z,2733.75
2018-05-09T06:55:54.646Z,2970.00
2018-05-09T06:56:54.616Z,3195.00
2018-05-09T06:57:54.603Z,3144.38
2018-05-09T06:58:54.686Z,2958.75
2018-05-09T06:59:54.607Z,2666.25
2018-05-09T07:00:54.493Z,2604.38
2018-05-09T07:01:54.485Z,2604.38
2018-05-09T07:02:54.460Z,2986.88
2018-05-09T07:03:54.412Z,3150.00
2018-05-09T07:04:54.382Z,3436.88
2018-05-09T07:05:54.380Z,3369.38
2018-05-09T07:06:54.332Z,2745.00
2018-05-09T07:07:54.304Z,2970.00
2018-05-09T07:08:54.328Z,3211.88
2018-05-09T07:09:54.268Z,3150.00
2018-05-09T07:10:54.263Z,2958.75
2018-05-09T07:11:54.241Z,3031.88
2018-05-09T07:12:54.185Z,2840.63
2018-05-09T07:13:54.165Z,2559.38
2018-05-09T07:14:54.142Z,3206.25
2018-05-09T07:15:54.208Z,3363.75
2018-05-09T07:16:54.125Z,3307.50
2018-05-09T07:17:54.102Z,3195.00
2018-05-09T07:18:54.079Z,3003.75
2018-05-09T07:19:54.062Z,2958.75
2018-05-09T07:20:54.009Z,3296.25
2018-05-09T07:21:53.984Z,3279.38
2018-05-09T07:22:53.983Z,3093.75
2018-05-09T07:23:53.979Z,3414.38
2018-05-09T07:24:53.977Z,3380.63
2018-05-09T07:25:53.921Z,3211.88
2018-05-09T07:26:53.872Z,3065.63
2018-05-09T07:27:53.856Z,3054.38
2018-05-09T07:28:53.832Z,3043.13
2018-05-09T07:29:53.837Z,2919.38
2018-05-09T07:30:53.804Z,3026.25
2018-05-09T07:31:53.781Z,3560.63
2018-05-09T07:32:53.755Z,3746.25
2018-05-09T07:33:53.756Z,3605.63
2018-05-09T07:34:53.735Z,3712.50
2018-05-09T07:35:53.735Z,2778.75
2018-05-09T07:36:53.682Z,2604.38
2018-05-09T07:37:53.656Z,1828.13
2018-05-09T07:38:53.659Z,1912.50
2018-05-09T07:39:53.640Z,2784.38
2018-05-09T07:40:53.591Z,1845.00
2018-05-09T07:41:53.588Z,1861.88
2018-05-09T07:42:53.588Z,2131.88
2018-05-09T07:43:53.596Z,2210.63
2018-05-09T07:44:53.516Z,2086.88
2018-05-09T07:45:53.513Z,1996.88
2018-05-09T07:46:53.492Z,1901.25
2018-05-09T07:47:53.638Z,1845.00
2018-05-09T07:48:53.447Z,1816.88
2018-05-09T07:49:53.466Z,1811.25
2018-05-09T07:50:53.425Z,1822.50
2018-05-09T07:51:53.392Z,1856.25
2018-05-09T07:52:53.379Z,1901.25
2018-05-09T07:53:53.329Z,1912.50
2018-05-09T07:54:53.349Z,1923.75
2018-05-09T07:55:53.979Z,1940.63
2018-05-09T07:56:53.317Z,1963.13
2018-05-09T07:57:53.280Z,2041.88
2018-05-09T07:58:53.232Z,2171.25
2018-05-09T07:59:53.213Z,2407.50
2018-05-09T08:00:53.195Z,3048.75
2018-05-09T08:01:53.164Z,3358.13
2018-05-09T08:02:53.131Z,3420.00
2018-05-09T08:03:53.133Z,3594.38
2018-05-09T08:04:53.104Z,4348.13
2018-05-09T08:05:53.084Z,3420.00
2018-05-09T08:06:53.064Z,4224.38
2018-05-09T08:07:53.035Z,2660.63
2018-05-09T08:08:53.018Z,2553.75
2018-05-09T08:09:53.014Z,2970.00
2018-05-09T08:10:52.969Z,2902.50
2018-05-09T08:11:52.941Z,3341.25
2018-05-09T08:12:53.011Z,3476.25
2018-05-09T08:13:52.910Z,3785.63
2018-05-09T08:14:52.908Z,3909.38
2018-05-09T08:15:52.857Z,5214.38
2018-05-09T08:16:52.866Z,4629.38
2018-05-09T08:17:52.826Z,2362.50
2018-05-09T08:18:52.814Z,4674.38
2018-05-09T08:19:52.823Z,3656.25
2018-05-09T08:20:52.746Z,3178.13
2018-05-09T08:21:52.732Z,3999.38
2018-05-09T08:22:52.707Z,4241.25
2018-05-09T08:23:52.772Z,3481.88
2018-05-09T08:24:52.679Z,3043.13
2018-05-09T08:25:52.650Z,3127.50
2018-05-09T08:26:52.633Z,2998.13
2018-05-09T08:27:52.653Z,3954.38
2018-05-09T08:28:52.618Z,4140.00
2018-05-09T08:29:52.604Z,3813.75
2018-05-09T08:30:52.584Z,3228.75
2018-05-09T08:31:52.562Z,4342.50
2018-05-09T08:32:52.559Z,3048.75
2018-05-09T08:33:52.544Z,3448.13
2018-05-09T08:34:52.462Z,4021.88
2018-05-09T08:35:52.457Z,4173.75
2018-05-09T08:36:52.431Z,4078.13
2018-05-09T08:37:52.420Z,3988.13
2018-05-09T08:38:52.417Z,4966.88
2018-05-09T08:39:52.411Z,5011.88
2018-05-09T08:40:52.348Z,4021.88
2018-05-09T08:41:52.358Z,4443.75
2018-05-09T08:42:52.332Z,5197.50
2018-05-09T08:43:52.465Z,4455.00
2018-05-09T08:44:52.301Z,4342.50
2018-05-09T08:45:52.283Z,4303.13
2018-05-09T08:46:52.281Z,4291.88
2018-05-09T08:47:52.258Z,4792.50
2018-05-09T08:48:52.214Z,4218.75
2018-05-09T08:49:52.188Z,3875.63
2018-05-09T08:50:52.177Z,4252.50
2018-05-09T08:51:52.163Z,4741.88
2018-05-09T08:52:52.162Z,4798.13
2018-05-09T08:53:52.112Z,4567.50
2018-05-09T08:54:52.131Z,3892.50
2018-05-09T08:55:52.066Z,4010.63
2018-05-09T08:56:52.052Z,5428.13
2018-05-09T08:57:52.041Z,5681.25
2018-05-09T08:58:52.018Z,4567.50
2018-05-09T08:59:51.987Z,4145.63
2018-05-09T09:00:51.990Z,4910.63
2018-05-09T09:01:51.973Z,5591.25
2018-05-09T09:02:51.946Z,4725.00
2018-05-09T09:03:51.943Z,4235.63
2018-05-09T09:04:51.916Z,3133.13
2018-05-09T09:05:51.879Z,5214.38
2018-05-09T09:06:51.883Z,5343.75
2018-05-09T09:07:51.882Z,5304.38
2018-05-09T09:08:51.872Z,5855.63
2018-05-09T09:09:51.827Z,4455.00
2018-05-09T09:10:51.832Z,4083.75
2018-05-09T09:11:51.858Z,5259.38
2018-05-09T09:12:51.759Z,1642.50
2018-05-09T09:13:51.750Z,4601.25
2018-05-09T09:14:51.716Z,4978.13
2018-05-09T09:15:51.759Z,1693.13
2018-05-09T09:16:51.685Z,5107.50
2018-05-09T09:17:51.671Z,1591.88
2018-05-09T09:18:51.680Z,4815.00
2018-05-09T09:19:51.633Z,3926.25
2018-05-09T09:20:51.660Z,1687.50
2018-05-09T09:21:51.606Z,1738.13
2018-05-09T09:22:51.559Z,1867.50
2018-05-09T09:23:51.563Z,4848.75
2018-05-09T09:24:51.550Z,1783.13
2018-05-09T09:25:51.525Z,3183.75
2018-05-09T09:26:51.522Z,1541.25
2018-05-09T09:27:51.498Z,1485.00
2018-05-09T09:28:51.481Z,1440.00
2018-05-09T09:29:51.456Z,1383.75
2018-05-09T09:30:51.434Z,1535.63
2018-05-09T09:31:51.400Z,2756.25
2018-05-09T09:32:51.396Z,5310.00
2018-05-09T09:33:51.366Z,5709.38
2018-05-09T09:34:51.351Z,5996.25
2018-05-09T09:35:51.327Z,5422.50
2018-05-09T09:36:51.311Z,4989.38
2018-05-09T09:37:51.282Z,4511.25
2018-05-09T09:38:51.271Z,3510.00
2018-05-09T09:39:51.275Z,3352.50
2018-05-09T09:40:51.227Z,4140.00
2018-05-09T09:41:51.271Z,4522.50
2018-05-09T09:42:51.182Z,4483.13
2018-05-09T09:43:51.153Z,4528.13
2018-05-09T09:44:51.142Z,5287.50
2018-05-09T09:45:51.111Z,4674.38
2018-05-09T09:46:51.129Z,5613.75
2018-05-09T09:47:51.080Z,6148.13
2018-05-09T09:48:51.056Z,5343.75
2018-05-09T09:49:51.113Z,5737.50
2018-05-09T09:50:51.029Z,5096.25
2018-05-09T09:51:50.983Z,5360.63
2018-05-09T09:52:50.978Z,5253.75
2018-05-09T09:53:50.978Z,4905.00
2018-05-09T09:54:50.948Z,4865.63
2018-05-09T09:55:50.914Z,4871.25
2018-05-09T09:56:50.890Z,5450.63
2018-05-09T09:57:50.875Z,5394.38
2018-05-09T09:58:50.858Z,4995.00
2018-05-09T09:59:50.852Z,4843.13
2018-05-09T10:00:50.822Z,4848.75
2018-05-09T10:01:50.802Z,3875.63
2018-05-09T10:02:50.775Z,3189.38
2018-05-09T10:03:51.528Z,4291.88
2018-05-09T10:04:50.768Z,5371.88
2018-05-09T10:05:50.752Z,1777.50
2018-05-09T10:06:50.688Z,2176.88
2018-05-09T10:07:50.679Z,5360.63
2018-05-09T10:08:50.658Z,5917.50
2018-05-09T10:09:50.655Z,6159.38
2018-05-09T10:10:50.665Z,5265.00
2018-05-09T10:11:50.596Z,4629.38
2018-05-09T10:12:50.582Z,4848.75
2018-05-09T10:13:50.562Z,4927.50
2018-05-09T10:14:50.533Z,5180.63
2018-05-09T10:15:50.546Z,4156.88
2018-05-09T10:16:50.514Z,5625.00
2018-05-09T10:17:50.476Z,1929.38
2018-05-09T10:18:50.456Z,4640.63
2018-05-09T10:19:50.445Z,1777.50
2018-05-09T10:20:50.432Z,1850.63
2018-05-09T10:21:50.395Z,1974.38
2018-05-09T10:22:50.388Z,5270.63
2018-05-09T10:23:50.360Z,5445.00
2018-05-09T10:24:50.330Z,5186.25
2018-05-09T10:25:50.336Z,3031.88
2018-05-09T10:26:50.305Z,2306.25
2018-05-09T10:27:50.300Z,1811.25
2018-05-09T10:28:50.261Z,1912.50
2018-05-09T10:29:50.263Z,5366.25
2018-05-09T10:30:50.283Z,5298.75
2018-05-09T10:31:50.281Z,5675.63
2018-05-09T10:32:50.185Z,5681.25
2018-05-09T10:33:50.154Z,5338.13
2018-05-09T10:34:50.154Z,5411.25
2018-05-09T10:35:50.135Z,5771.25
2018-05-09T10:36:50.162Z,3701.25
2018-05-09T10:37:50.079Z,4786.88
2018-05-09T10:38:50.042Z,3076.88
2018-05-09T10:39:50.029Z,2154.38
2018-05-09T10:40:50.037Z,1980.00
2018-05-09T10:41:50.011Z,1935.00
2018-05-09T10:42:49.963Z,1985.63
2018-05-09T10:43:49.955Z,1890.00
2018-05-09T10:44:49.951Z,1822.50
2018-05-09T10:45:49.918Z,1738.13
2018-05-09T10:46:49.900Z,1755.00
2018-05-09T10:47:49.880Z,1895.63
2018-05-09T10:48:49.863Z,4106.25
2018-05-09T10:49:49.872Z,2452.50
2018-05-09T10:50:49.852Z,6648.75
2018-05-09T10:51:49.799Z,5771.25
2018-05-09T10:52:50.561Z,5326.88
2018-05-09T10:53:49.742Z,2115.00
2018-05-09T10:54:49.725Z,1698.75
2018-05-09T10:55:49.707Z,1625.63
2018-05-09T10:56:49.705Z,1648.13
2018-05-09T10:57:49.697Z,1653.75
2018-05-09T10:58:49.635Z,1766.25
2018-05-09T10:59:49.628Z,1839.38
2018-05-09T11:00:49.598Z,1985.63
2018-05-09T11:01:49.579Z,2081.25
2018-05-09T11:02:49.555Z,2311.88
2018-05-09T11:03:49.524Z,2446.88
2018-05-09T11:04:49.512Z,2790.00
2018-05-09T11:05:49.486Z,3060.00
2018-05-09T11:06:49.472Z,2953.13
2018-05-09T11:07:49.443Z,3093.75
2018-05-09T11:08:49.435Z,5883.75
2018-05-09T11:09:49.395Z,4938.75
2018-05-09T11:10:49.399Z,5523.75
2018-05-09T11:11:49.347Z,2975.63
2018-05-09T11:12:49.342Z,5692.50
2018-05-09T11:13:49.351Z,6069.38
2018-05-09T11:14:49.318Z,6457.50
2018-05-09T11:15:49.265Z,5658.75
2018-05-09T11:16:49.239Z,5343.75
2018-05-09T11:17:49.219Z,5281.88
2018-05-09T11:18:49.224Z,3571.88
2018-05-09T11:19:49.201Z,4702.50
2018-05-09T11:20:49.161Z,5085.00
2018-05-09T11:21:49.174Z,5450.63
2018-05-09T11:22:49.132Z,5467.50
2018-05-09T11:23:49.107Z,4730.63
2018-05-09T11:24:49.070Z,4747.50
2018-05-09T11:25:49.036Z,4663.13
2018-05-09T11:26:49.038Z,5073.75
2018-05-09T11:27:49.007Z,4848.75
2018-05-09T11:28:48.977Z,2030.63
2018-05-09T11:29:48.957Z,1659.38
2018-05-09T11:30:48.931Z,1541.25
2018-05-09T11:31:48.920Z,1479.38
2018-05-09T11:32:48.895Z,1479.38
2018-05-09T11:33:48.880Z,1698.75
2018-05-09T11:34:48.873Z,2176.88
2018-05-09T11:35:48.824Z,5169.38
2018-05-09T11:36:48.895Z,1980.00
2018-05-09T11:37:48.776Z,1710.00
2018-05-09T11:38:48.765Z,1473.75
2018-05-09T11:39:48.759Z,1321.88
2018-05-09T11:40:48.720Z,1299.38
2018-05-09T11:41:48.700Z,1372.50
2018-05-09T11:42:48.706Z,1546.88
2018-05-09T11:43:48.670Z,1918.13
2018-05-09T11:44:48.665Z,2458.13
2018-05-09T11:45:48.613Z,4477.50
2018-05-09T11:46:48.609Z,2289.38
2018-05-09T11:47:48.563Z,2328.75
2018-05-09T11:48:48.535Z,2193.75
2018-05-09T11:49:48.522Z,2008.13
2018-05-09T11:50:48.604Z,1918.13
2018-05-09T11:51:48.468Z,1884.38
2018-05-09T11:52:48.478Z,1906.88
2018-05-09T11:53:48.437Z,2064.38
2018-05-09T11:54:48.406Z,2109.38
2018-05-09T11:55:48.399Z,2205.00
2018-05-09T11:56:48.372Z,2446.88
2018-05-09T11:57:48.330Z,5208.75
2018-05-09T11:58:48.324Z,6356.25
2018-05-09T11:59:48.298Z,6013.13
2018-05-09T12:00:48.284Z,4500.00
2018-05-09T12:01:48.263Z,5079.38
2018-05-09T12:02:48.257Z,5518.13
2018-05-09T12:03:49.101Z,4500.00
2018-05-09T12:04:48.182Z,2902.50
2018-05-09T12:05:48.168Z,5760.00
2018-05-09T12:06:48.136Z,5934.38
2018-05-09T12:07:48.125Z,6001.88
2018-05-09T12:08:48.094Z,6063.75
2018-05-09T12:09:48.063Z,5855.63
2018-05-09T12:10:48.164Z,3015.00
2018-05-09T12:11:48.030Z,2469.38
2018-05-09T12:12:48.006Z,2424.38
2018-05-09T12:13:47.976Z,2536.88
2018-05-09T12:14:47.960Z,2671.88
2018-05-09T12:15:47.933Z,5197.50
2018-05-09T12:16:47.920Z,3915.00
2018-05-09T12:17:47.883Z,2559.38
2018-05-09T12:18:47.880Z,2401.88
2018-05-09T12:19:47.862Z,2615.63
2018-05-09T12:20:47.825Z,5416.88
2018-05-09T12:21:47.802Z,5315.63
2018-05-09T12:22:47.788Z,5585.63
2018-05-09T12:23:47.758Z,5765.63
2018-05-09T12:24:47.748Z,5591.25
2018-05-09T12:25:47.717Z,5844.38
2018-05-09T12:26:47.684Z,5220.00
2018-05-09T12:27:47.660Z,5591.25
2018-05-09T12:28:47.645Z,6761.25
2018-05-09T12:29:47.623Z,6013.13